createdAt,value
2019-06-27T00:01:12.086Z,15.03
2019-06-27T00:03:41.250Z,15.37
2019-06-27T00:06:10.506Z,17.60
2019-06-27T00:08:39.749Z,15.43
2019-06-27T00:11:08.979Z,16.80
2019-06-27T00:13:38.124Z,16.07
2019-06-27T00:16:07.314Z,18.80
2019-06-27T00:18:36.557Z,15.40
2019-06-27T00:21:05.793Z,15.50
2019-06-27T00:23:34.939Z,14.20
2019-06-27T00:26:04.183Z,15.97
2019-06-27T00:28:33.343Z,16.53
2019-06-27T00:31:02.598Z,14.97
2019-06-27T00:33:31.815Z,15.53
2019-06-27T00:36:00.987Z,16.67
2019-06-27T00:38:30.211Z,17.00
2019-06-27T00:40:59.464Z,14.37
2019-06-27T00:43:28.784Z,14.90
2019-06-27T00:45:58.045Z,13.93
2019-06-27T00:48:27.209Z,15.40
2019-06-27T00:50:56.370Z,15.27
2019-06-27T00:53:25.690Z,15.13
2019-06-27T00:55:54.931Z,15.00
2019-06-27T00:58:24.079Z,13.70
2019-06-27T01:00:53.313Z,15.10
2019-06-27T01:03:22.471Z,15.40
2019-06-27T01:05:51.726Z,14.57
2019-06-27T01:08:20.973Z,15.27
2019-06-27T01:10:50.166Z,14.73
2019-06-27T01:13:19.311Z,15.37
2019-06-27T01:15:48.570Z,13.77
2019-06-27T01:18:17.827Z,14.70
2019-06-27T01:20:47.052Z,13.50
2019-06-27T01:23:16.315Z,11.53
2019-06-27T01:25:45.550Z,17.03
2019-06-27T01:28:14.787Z,12.27
2019-06-27T01:30:44.014Z,16.03
2019-06-27T01:33:13.199Z,12.10
2019-06-27T01:35:42.434Z,12.63
2019-06-27T01:38:11.668Z,12.53
2019-06-27T01:40:40.909Z,14.90
2019-06-27T01:43:10.184Z,16.43
2019-06-27T01:45:44.697Z,12.80
2019-06-27T01:48:13.867Z,14.40
2019-06-27T01:50:43.014Z,15.33
2019-06-27T01:53:12.274Z,20.10
2019-06-27T01:55:41.505Z,15.70
2019-06-27T01:58:10.709Z,14.70
2019-06-27T02:00:39.944Z,15.33
2019-06-27T02:03:09.192Z,14.17
2019-06-27T02:05:39.611Z,14.17
2019-06-27T02:08:09.531Z,18.77
2019-06-27T02:10:38.694Z,14.83
2019-06-27T02:13:07.928Z,15.83
2019-06-27T02:15:37.075Z,15.20
2019-06-27T02:18:06.326Z,13.90
2019-06-27T02:20:35.570Z,17.07
2019-06-27T02:23:04.798Z,18.07
2019-06-27T02:25:34.042Z,17.20
2019-06-27T02:28:04.618Z,16.37
2019-06-27T02:30:42.270Z,14.97
2019-06-27T02:33:12.224Z,14.53
2019-06-27T02:35:41.539Z,15.90
2019-06-27T02:38:10.853Z,13.40
2019-06-27T02:40:39.998Z,15.93
2019-06-27T02:43:09.265Z,14.83
2019-06-27T02:45:38.651Z,14.60
2019-06-27T02:48:07.908Z,15.40
2019-06-27T02:50:37.062Z,14.93
2019-06-27T02:53:06.437Z,14.87
2019-06-27T02:55:35.737Z,15.23
2019-06-27T02:58:27.727Z,12.80
2019-06-27T03:00:35.947Z,15.83
2019-06-27T03:03:05.251Z,15.90
2019-06-27T03:05:34.472Z,14.83
2019-06-27T03:08:03.706Z,16.00
2019-06-27T03:10:32.871Z,18.70
2019-06-27T03:13:02.138Z,15.10
2019-06-27T03:15:31.325Z,16.23
2019-06-27T03:18:00.632Z,15.30
2019-06-27T03:20:29.830Z,16.80
2019-06-27T03:22:59.091Z,15.23
2019-06-27T03:25:28.318Z,15.50
2019-06-27T03:27:57.560Z,15.80
2019-06-27T03:30:26.815Z,16.13
2019-06-27T03:32:56.028Z,15.57
2019-06-27T03:35:25.481Z,16.33
2019-06-27T03:37:54.826Z,16.60
2019-06-27T03:40:24.074Z,15.33
2019-06-27T03:42:53.302Z,17.03
2019-06-27T03:45:22.464Z,17.13
2019-06-27T03:47:51.694Z,16.17
2019-06-27T03:50:20.924Z,15.10
2019-06-27T03:52:50.139Z,16.43
2019-06-27T03:55:19.370Z,15.00
2019-06-27T03:57:48.503Z,16.07
2019-06-27T04:00:24.383Z,15.93
2019-06-27T04:02:53.611Z,17.30
2019-06-27T04:05:22.798Z,15.93
2019-06-27T04:07:52.035Z,15.17
2019-06-27T04:10:21.258Z,15.03
2019-06-27T04:12:50.470Z,15.67
2019-06-27T04:15:19.720Z,16.40
2019-06-27T04:17:48.862Z,15.53
2019-06-27T04:20:18.213Z,15.57
2019-06-27T04:22:47.440Z,15.97
2019-06-27T04:25:16.618Z,18.47
2019-06-27T04:27:45.844Z,17.50
2019-06-27T04:30:15.279Z,16.40
2019-06-27T04:32:44.437Z,15.87
2019-06-27T04:35:13.696Z,17.30
2019-06-27T04:37:42.975Z,18.10
2019-06-27T04:40:12.338Z,19.50
2019-06-27T04:42:41.578Z,16.07
2019-06-27T04:45:10.930Z,17.33
2019-06-27T04:47:40.219Z,19.00
2019-06-27T04:50:09.384Z,18.20
2019-06-27T04:52:38.563Z,17.10
2019-06-27T04:55:07.973Z,17.30
2019-06-27T04:57:37.187Z,15.37
2019-06-27T05:00:07.058Z,20.60
2019-06-27T05:02:36.190Z,16.43
2019-06-27T05:05:05.673Z,16.07
2019-06-27T05:07:34.890Z,16.87
2019-06-27T05:10:04.797Z,16.73
2019-06-27T05:12:34.210Z,17.30
2019-06-27T05:15:03.481Z,18.53
2019-06-27T05:17:32.643Z,17.07
2019-06-27T05:20:03.254Z,16.17
2019-06-27T05:22:32.674Z,16.87
2019-06-27T05:25:01.990Z,21.00
2019-06-27T05:27:31.219Z,15.53
2019-06-27T05:30:09.591Z,16.77
2019-06-27T05:32:31.365Z,16.83
2019-06-27T05:35:00.605Z,18.03
2019-06-27T05:37:29.831Z,17.20
2019-06-27T05:39:59.099Z,18.33
2019-06-27T05:42:28.337Z,17.30
2019-06-27T05:44:57.516Z,18.40
2019-06-27T05:47:26.785Z,18.47
2019-06-27T05:49:56.006Z,17.70
2019-06-27T05:52:25.190Z,18.57
2019-06-27T05:54:54.441Z,17.13
2019-06-27T05:57:23.703Z,17.87
2019-06-27T05:59:52.936Z,17.23
2019-06-27T06:02:22.163Z,18.10
2019-06-27T06:04:51.419Z,16.93
2019-06-27T06:07:20.588Z,16.07
2019-06-27T06:09:51.991Z,15.73
2019-06-27T06:12:21.229Z,15.70
2019-06-27T06:14:50.482Z,16.53
2019-06-27T06:17:19.725Z,16.37
2019-06-27T06:19:48.952Z,18.77
2019-06-27T06:22:18.195Z,17.43
2019-06-27T06:24:47.354Z,19.00
2019-06-27T06:27:16.534Z,17.23
2019-06-27T06:29:45.785Z,18.77
2019-06-27T06:32:15.034Z,20.13
2019-06-27T06:34:44.226Z,18.23
2019-06-27T06:37:13.474Z,17.43
2019-06-27T06:39:42.705Z,18.67
2019-06-27T06:42:11.954Z,17.43
2019-06-27T06:44:41.098Z,20.60
2019-06-27T06:47:10.397Z,19.00
2019-06-27T06:49:39.580Z,17.00
2019-06-27T06:52:08.738Z,19.50
2019-06-27T06:54:37.990Z,19.03
2019-06-27T06:57:07.248Z,21.37
2019-06-27T06:59:36.488Z,21.27
2019-06-27T07:02:05.707Z,21.47
2019-06-27T07:04:34.902Z,21.07
2019-06-27T07:07:13.147Z,17.97
2019-06-27T07:09:41.169Z,20.73
2019-06-27T07:12:10.418Z,19.40
2019-06-27T07:14:39.571Z,18.87
2019-06-27T07:17:08.825Z,18.07
2019-06-27T07:19:38.053Z,18.67
2019-06-27T07:22:07.305Z,19.20
2019-06-27T07:24:36.450Z,17.87
2019-06-27T07:27:05.626Z,18.50
2019-06-27T07:29:34.935Z,16.53
2019-06-27T07:32:04.233Z,17.50
2019-06-27T07:34:33.498Z,17.50
2019-06-27T07:37:02.767Z,18.37
2019-06-27T07:39:31.983Z,17.50
2019-06-27T07:42:01.238Z,19.57
2019-06-27T07:44:30.423Z,18.23
2019-06-27T07:46:59.691Z,19.03
2019-06-27T07:49:28.918Z,18.27
2019-06-27T07:51:58.140Z,17.63
2019-06-27T07:54:27.396Z,18.13
2019-06-27T07:56:56.607Z,16.73
2019-06-27T07:59:25.777Z,19.00
2019-06-27T08:01:54.928Z,18.13
2019-06-27T08:04:24.086Z,19.07
2019-06-27T08:06:53.282Z,17.63
2019-06-27T08:09:22.490Z,18.80
2019-06-27T08:11:51.790Z,20.80
2019-06-27T08:14:21.030Z,19.43
2019-06-27T08:16:50.300Z,17.90
2019-06-27T08:19:19.560Z,18.30
2019-06-27T08:21:48.784Z,18.23
2019-06-27T08:24:18.028Z,16.70
2019-06-27T08:26:47.244Z,19.23
2019-06-27T08:29:16.481Z,17.73
2019-06-27T08:31:51.372Z,17.37
2019-06-27T08:34:16.713Z,17.30
2019-06-27T08:36:45.957Z,16.50
2019-06-27T08:39:15.243Z,16.80
2019-06-27T08:41:44.489Z,16.20
2019-06-27T08:44:13.711Z,16.87
2019-06-27T08:46:42.955Z,18.33
2019-06-27T08:49:12.185Z,20.17
2019-06-27T08:51:41.435Z,15.97
2019-06-27T08:54:10.679Z,18.93
2019-06-27T08:56:39.933Z,18.07
2019-06-27T08:59:09.095Z,16.73
2019-06-27T09:01:38.357Z,16.57
2019-06-27T09:04:07.512Z,19.10
2019-06-27T09:06:36.766Z,17.13
2019-06-27T09:09:06.574Z,15.93
2019-06-27T09:11:38.212Z,17.70
2019-06-27T09:14:06.810Z,15.40
2019-06-27T09:16:36.043Z,18.00
2019-06-27T09:19:05.301Z,15.60
2019-06-27T09:21:34.551Z,16.90
2019-06-27T09:24:03.788Z,15.83
2019-06-27T09:26:33.033Z,17.03
2019-06-27T09:29:02.288Z,16.67
2019-06-27T09:31:31.517Z,16.40
2019-06-27T09:34:00.843Z,15.53
2019-06-27T09:36:29.974Z,15.40
2019-06-27T09:38:59.254Z,16.10
2019-06-27T09:41:28.637Z,16.53
2019-06-27T09:43:57.927Z,17.07
2019-06-27T09:46:27.102Z,16.13
2019-06-27T09:48:56.289Z,17.73
2019-06-27T09:51:25.540Z,16.50
2019-06-27T09:53:54.798Z,14.53
2019-06-27T09:56:24.107Z,15.03
2019-06-27T09:58:53.371Z,14.33
2019-06-27T10:01:22.613Z,14.77
2019-06-27T10:03:51.802Z,16.57
2019-06-27T10:06:21.025Z,14.90
2019-06-27T10:08:50.331Z,18.63
2019-06-27T10:11:19.534Z,13.93
2019-06-27T10:13:48.786Z,15.13
2019-06-27T10:16:17.999Z,14.93
2019-06-27T10:18:47.179Z,18.93
2019-06-27T10:21:16.326Z,14.37
2019-06-27T10:23:45.661Z,16.00
2019-06-27T10:26:14.903Z,15.07
2019-06-27T10:28:44.174Z,13.73
2019-06-27T10:31:13.309Z,15.60
2019-06-27T10:33:42.554Z,15.57
2019-06-27T10:36:11.834Z,14.37
2019-06-27T10:38:41.096Z,14.40
2019-06-27T10:41:10.271Z,12.93
2019-06-27T10:43:39.570Z,14.77
2019-06-27T10:46:08.813Z,14.03
2019-06-27T10:48:38.094Z,12.47
2019-06-27T10:51:12.553Z,15.03
2019-06-27T10:53:41.721Z,13.13
2019-06-27T10:56:10.984Z,14.87
2019-06-27T10:58:40.230Z,13.87
2019-06-27T11:01:09.479Z,13.97
2019-06-27T11:03:38.874Z,12.33
2019-06-27T11:06:08.094Z,10.67
2019-06-27T11:08:37.267Z,12.07
2019-06-27T11:11:06.483Z,13.73
2019-06-27T11:13:35.747Z,12.10
2019-06-27T11:16:05.021Z,15.80
2019-06-27T11:18:34.277Z,13.57
2019-06-27T11:21:03.609Z,12.83
2019-06-27T11:23:32.918Z,13.17
2019-06-27T11:26:02.150Z,14.10
2019-06-27T11:28:31.352Z,14.00
2019-06-27T11:31:00.628Z,14.83
2019-06-27T11:33:33.082Z,14.50
2019-06-27T11:36:00.884Z,13.27
2019-06-27T11:38:30.086Z,14.50
2019-06-27T11:40:59.495Z,13.93
2019-06-27T11:43:28.778Z,13.87
2019-06-27T11:45:58.021Z,13.90
2019-06-27T11:48:27.329Z,14.23
2019-06-27T11:50:56.566Z,12.80
2019-06-27T11:53:25.848Z,12.93
2019-06-27T11:55:56.458Z,15.53
2019-06-27T11:58:25.788Z,11.10
2019-06-27T12:00:55.058Z,10.77
2019-06-27T12:03:24.352Z,11.47
2019-06-27T12:05:53.621Z,11.63
2019-06-27T12:08:22.900Z,10.87
2019-06-27T12:10:52.196Z,11.17
2019-06-27T12:13:21.484Z,13.53
2019-06-27T12:15:51.769Z,12.13
2019-06-27T12:18:21.180Z,13.97
2019-06-27T12:20:50.352Z,13.87
2019-06-27T12:23:19.569Z,12.87
2019-06-27T12:25:48.826Z,11.97
2019-06-27T12:28:18.001Z,16.90
2019-06-27T12:30:47.178Z,11.33
2019-06-27T12:33:16.433Z,11.80
2019-06-27T12:35:45.830Z,12.57
2019-06-27T12:38:15.072Z,40.80
2019-06-27T12:40:44.255Z,11.63
2019-06-27T12:43:14.661Z,12.67
2019-06-27T12:45:44.053Z,14.10
2019-06-27T12:48:16.988Z,12.23
2019-06-27T12:50:46.571Z,12.63
2019-06-27T12:53:16.635Z,14.87
2019-06-27T12:55:45.938Z,12.10
2019-06-27T12:58:15.173Z,11.70
2019-06-27T13:00:44.418Z,12.30
2019-06-27T13:03:13.658Z,12.90
2019-06-27T13:05:42.953Z,13.23
2019-06-27T13:08:12.214Z,13.40
2019-06-27T13:10:41.480Z,14.20
2019-06-27T13:13:10.758Z,14.23
2019-06-27T13:15:40.033Z,12.20
2019-06-27T13:18:09.253Z,12.77
2019-06-27T13:20:38.532Z,22.33
2019-06-27T13:23:07.701Z,13.00
2019-06-27T13:25:36.874Z,20.87
2019-06-27T13:28:06.124Z,12.50
2019-06-27T13:30:35.339Z,12.93
2019-06-27T13:33:04.607Z,12.50
2019-06-27T13:35:33.848Z,12.60
2019-06-27T13:38:03.088Z,14.50
2019-06-27T13:40:32.267Z,11.63
2019-06-27T13:43:01.535Z,11.83
2019-06-27T13:45:30.850Z,16.80
2019-06-27T13:48:00.085Z,11.77
2019-06-27T13:50:29.377Z,11.43
2019-06-27T13:52:58.563Z,12.17
2019-06-27T13:55:27.806Z,11.50
2019-06-27T13:57:57.724Z,11.33
2019-06-27T14:00:41.060Z,11.93
2019-06-27T14:03:10.339Z,11.20
2019-06-27T14:05:39.599Z,10.27
2019-06-27T14:08:08.805Z,10.90
2019-06-27T14:10:38.073Z,11.17
2019-06-27T14:13:07.329Z,11.40
2019-06-27T14:15:36.597Z,11.00
2019-06-27T14:18:05.852Z,11.67
2019-06-27T14:20:35.164Z,11.00
2019-06-27T14:23:04.399Z,11.20
2019-06-27T14:25:33.665Z,10.00
2019-06-27T14:28:02.987Z,9.50
2019-06-27T14:30:32.300Z,11.00
2019-06-27T14:33:01.623Z,9.53
2019-06-27T14:35:31.000Z,9.57
2019-06-27T14:38:00.219Z,10.40
2019-06-27T14:40:29.522Z,10.37
2019-06-27T14:42:58.813Z,8.67
2019-06-27T14:45:28.026Z,9.87
2019-06-27T14:47:57.317Z,10.40
2019-06-27T14:50:26.727Z,11.03
2019-06-27T14:52:56.077Z,12.00
2019-06-27T14:55:25.382Z,10.23
2019-06-27T14:57:54.717Z,9.53
2019-06-27T15:00:25.378Z,9.47
2019-06-27T15:02:54.805Z,10.13
2019-06-27T15:05:32.610Z,14.40
2019-06-27T15:07:55.165Z,10.40
2019-06-27T15:10:24.441Z,9.10
2019-06-27T15:12:57.369Z,9.63
2019-06-27T15:15:24.654Z,9.20
2019-06-27T15:17:53.923Z,9.20
2019-06-27T15:20:23.241Z,9.77
2019-06-27T15:22:52.485Z,8.80
2019-06-27T15:25:21.845Z,8.63
2019-06-27T15:27:51.088Z,40.77
2019-06-27T15:30:21.383Z,8.33
2019-06-27T15:32:50.629Z,7.97
2019-06-27T15:35:19.998Z,8.73
2019-06-27T15:37:49.401Z,9.53
2019-06-27T15:40:18.862Z,7.77
2019-06-27T15:42:48.119Z,6.57
2019-06-27T15:45:17.299Z,7.47
2019-06-27T15:47:46.443Z,6.80
2019-06-27T15:50:16.258Z,7.63
2019-06-27T15:52:45.488Z,7.37
2019-06-27T15:55:15.360Z,111.80
2019-06-27T15:57:44.635Z,6.70
2019-06-27T16:00:14.311Z,6.70
2019-06-27T16:02:43.554Z,7.40
2019-06-27T16:05:14.702Z,7.00
2019-06-27T16:08:03.510Z,6.77
2019-06-27T16:10:33.230Z,7.50
2019-06-27T16:13:03.087Z,7.57
2019-06-27T16:15:32.819Z,8.70
2019-06-27T16:18:02.756Z,7.20
2019-06-27T16:20:32.381Z,6.77
2019-06-27T16:23:01.967Z,6.27
2019-06-27T16:25:31.612Z,6.23
2019-06-27T16:28:01.281Z,6.80
2019-06-27T16:30:31.008Z,6.53
2019-06-27T16:33:00.656Z,7.07
2019-06-27T16:35:30.269Z,6.10
2019-06-27T16:37:59.925Z,6.40
2019-06-27T16:40:29.534Z,7.13
2019-06-27T16:42:59.106Z,6.63
2019-06-27T16:45:28.858Z,4.97
2019-06-27T16:47:58.460Z,5.73
2019-06-27T16:50:28.058Z,6.60
2019-06-27T16:52:57.689Z,4.10
2019-06-27T16:55:27.354Z,4.43
2019-06-27T16:57:56.982Z,3.83
2019-06-27T17:00:26.911Z,3.60
2019-06-27T17:02:56.597Z,3.50
2019-06-27T17:05:26.223Z,4.17
2019-06-27T17:07:55.907Z,3.57
2019-06-27T17:10:25.482Z,3.93
2019-06-27T17:12:55.145Z,3.90
2019-06-27T17:15:24.953Z,3.33
2019-06-27T17:17:54.624Z,3.10
2019-06-27T17:20:24.276Z,3.00
2019-06-27T17:22:53.929Z,2.70
2019-06-27T17:25:23.570Z,2.63
2019-06-27T17:27:53.262Z,2.40
2019-06-27T17:30:23.045Z,11.23
2019-06-27T17:32:52.738Z,2.97
2019-06-27T17:35:22.378Z,3.07
2019-06-27T17:37:51.958Z,2.90
2019-06-27T17:40:22.697Z,2.43
2019-06-27T17:42:52.384Z,2.40
2019-06-27T17:45:22.020Z,2.00
2019-06-27T17:47:51.748Z,2.00
2019-06-27T17:50:21.398Z,2.57
2019-06-27T17:52:51.166Z,2.47
2019-06-27T17:55:20.993Z,2.20
2019-06-27T17:57:50.678Z,2.33
2019-06-27T18:00:20.275Z,6.00
2019-06-27T18:02:49.906Z,2.60
2019-06-27T18:05:19.572Z,1.70
2019-06-27T18:07:49.991Z,4.20
2019-06-27T18:10:20.544Z,2.37
2019-06-27T18:12:50.213Z,1.80
2019-06-27T18:15:20.213Z,2.33
2019-06-27T18:17:49.848Z,2.37
2019-06-27T18:20:19.515Z,2.00
2019-06-27T18:22:49.104Z,1.77
2019-06-27T18:25:18.727Z,2.23
2019-06-27T18:27:48.432Z,1.67
2019-06-27T18:30:18.268Z,3.17
2019-06-27T18:32:47.983Z,1.17
2019-06-27T18:35:17.792Z,1.10
2019-06-27T18:37:48.836Z,2.80
2019-06-27T18:40:20.628Z,1.30
2019-06-27T18:42:50.639Z,1.30
2019-06-27T18:45:20.498Z,1.77
2019-06-27T18:47:50.245Z,1.20
2019-06-27T18:50:20.052Z,3.07
2019-06-27T18:52:49.707Z,1.30
2019-06-27T18:55:24.063Z,1.10
2019-06-27T18:57:53.777Z,2.50
2019-06-27T19:00:23.410Z,1.20
2019-06-27T19:02:55.330Z,4.00
2019-06-27T19:05:25.076Z,1.20
2019-06-27T19:10:31.303Z,1.20
2019-06-27T19:13:00.882Z,2.27
2019-06-27T19:15:30.453Z,2.50
2019-06-27T19:18:00.137Z,2.50
2019-06-27T19:20:35.452Z,1.97
2019-06-27T19:23:24.075Z,1.53
2019-06-27T19:25:55.935Z,3.47
2019-06-27T19:28:25.558Z,1.40
2019-06-27T19:30:55.266Z,1.57
2019-06-27T19:33:24.912Z,3.07
2019-06-27T19:35:54.574Z,1.00
2019-06-27T19:38:24.899Z,1.10
2019-06-27T19:40:57.873Z,1.57
2019-06-27T19:43:29.766Z,1.20
2019-06-27T19:45:59.409Z,1.17
2019-06-27T19:48:29.085Z,1.23
2019-06-27T19:50:58.689Z,1.50
2019-06-27T19:53:28.268Z,2.47
2019-06-27T19:55:58.505Z,1.60
2019-06-27T19:58:28.301Z,2.33
2019-06-27T20:00:57.937Z,5.00
2019-06-27T20:03:27.558Z,1.63
2019-06-27T20:05:58.413Z,2.20
2019-06-27T20:08:28.096Z,1.50
2019-06-27T20:10:57.732Z,1.47
2019-06-27T20:13:27.673Z,7.20
2019-06-27T20:15:57.271Z,3.90
2019-06-27T20:18:26.956Z,1.73
2019-06-27T20:20:56.694Z,3.13
2019-06-27T20:23:26.491Z,4.10
2019-06-27T20:25:56.065Z,5.33
2019-06-27T20:28:25.812Z,1.20
2019-06-27T20:30:55.527Z,1.17
2019-06-27T20:33:25.300Z,1.50
2019-06-27T20:35:54.951Z,1.53
2019-06-27T20:38:34.488Z,1.17
2019-06-27T20:40:55.905Z,1.30
2019-06-27T20:43:25.515Z,1.93
2019-06-27T20:45:55.196Z,4.60
2019-06-27T20:48:24.851Z,1.60
2019-06-27T20:50:54.489Z,1.10
2019-06-27T20:53:24.068Z,1.43
2019-06-27T20:55:53.755Z,1.70
2019-06-27T20:58:23.325Z,1.30
2019-06-27T21:00:52.914Z,5.00
2019-06-27T21:03:22.490Z,1.20
2019-06-27T21:05:52.150Z,1.40
2019-06-27T21:08:21.833Z,1.10
2019-06-27T21:10:51.496Z,2.93
2019-06-27T21:13:21.096Z,1.10
2019-06-27T21:15:50.815Z,3.27
2019-06-27T21:18:20.409Z,1.33
2019-06-27T21:20:49.962Z,2.17
2019-06-27T21:23:19.539Z,1.00
2019-06-27T21:25:49.108Z,3.33
2019-06-27T21:28:18.724Z,1.40
2019-06-27T21:30:48.317Z,4.30
2019-06-27T21:33:18.007Z,1.63
2019-06-27T21:35:47.684Z,1.30
2019-06-27T21:38:17.266Z,1.27
2019-06-27T21:40:47.103Z,1.50
2019-06-27T21:43:16.835Z,1.70
2019-06-27T21:45:46.484Z,1.20
2019-06-27T21:48:16.170Z,1.23
2019-06-27T21:50:45.717Z,1.80
2019-06-27T21:53:15.386Z,1.30
2019-06-27T21:55:45.009Z,3.27
2019-06-27T21:58:14.625Z,1.87
2019-06-27T22:00:44.669Z,1.30
2019-06-27T22:03:14.408Z,2.20
2019-06-27T22:05:44.049Z,1.27
2019-06-27T22:08:13.643Z,2.07
2019-06-27T22:10:43.250Z,1.70
2019-06-27T22:13:12.917Z,1.13
2019-06-27T22:15:42.680Z,1.50
2019-06-27T22:18:12.319Z,1.97
2019-06-27T22:20:41.976Z,1.20
2019-06-27T22:23:11.537Z,1.60
2019-06-27T22:25:41.292Z,1.50
2019-06-27T22:28:10.960Z,1.30
2019-06-27T22:30:40.619Z,1.50
2019-06-27T22:33:10.262Z,1.33
2019-06-27T22:35:39.902Z,1.60
2019-06-27T22:38:27.022Z,2.30
2019-06-27T22:41:14.084Z,4.13
2019-06-27T22:44:01.266Z,1.10
2019-06-27T22:46:48.611Z,1.93
2019-06-27T22:49:17.533Z,1.50
2019-06-27T22:52:09.091Z,1.23
2019-06-27T22:54:40.504Z,3.27
2019-06-27T22:57:10.135Z,1.60
2019-06-27T22:59:39.798Z,5.80
2019-06-27T23:02:09.331Z,1.40
2019-06-27T23:04:38.983Z,3.80
2019-06-27T23:07:08.642Z,9.70
2019-06-27T23:09:38.240Z,2.67
2019-06-27T23:12:07.875Z,3.83
2019-06-27T23:14:37.432Z,1.80
2019-06-27T23:17:07.033Z,1.30
2019-06-27T23:19:36.556Z,1.87
2019-06-27T23:22:06.621Z,3.80
2019-06-27T23:24:36.235Z,1.80
2019-06-27T23:27:05.853Z,1.30
2019-06-27T23:29:35.483Z,2.03
2019-06-27T23:32:05.113Z,2.13
2019-06-27T23:34:34.771Z,1.63
2019-06-27T23:37:04.459Z,1.50
2019-06-27T23:39:34.118Z,1.60
2019-06-27T23:42:03.778Z,1.77
2019-06-27T23:44:33.442Z,1.67
2019-06-27T23:47:03.114Z,1.80
2019-06-27T23:49:32.677Z,2.30
2019-06-27T23:52:02.297Z,2.70
2019-06-27T23:54:31.942Z,1.60
2019-06-27T23:57:01.602Z,2.13
2019-06-27T23:59:31.194Z,3.67
